Terminal Aerodrome Forecast
Issued by NWS

Home | Current Version | Previous Version | Graphics & Text | Print | Product List | Glossary On
Versions: 1 2 3 4 5 6 7 8 9 10 11 12 13 14 15 16 17 18 19
674
FTUS43 KABR 231726
TAFMBG
TAF
KMBG 231726Z 2318/2418 32020G32KT P6SM SCT050
     FM240200 32014KT P6SM SKC
     FM240400 32006KT P6SM FEW200
     FM241300 32015KT P6SM FEW250=

USA.gov is the U.S. government's official web portal to all federal, state and local government web resources and services.